Time;durP1;ratioP1;P1;durP2;ratioP2;P2;SDS_P1;SDS_P2;PMS_P1;PMS_P2;Temp;Humidity;BMP_temperature;BMP_pressure;BME280_temperature;BME280_humidity;BME280_pressure;Samples;Min_cycle;Max_cycle;Signal;HPM_P1;HPM_P2
2021/08/08 00:00:56;;;;;;;1.10;0.70;;;;;;;27.82;42.29;99355.73;1767893;80;21033;-52
2021/08/08 00:03:22;;;;;;;5.00;1.20;;;;;;;27.80;42.28;99355.38;1742017;80;21191;-52
2021/08/08 00:05:49;;;;;;;0.88;0.88;;;;;;;27.80;42.31;99351.84;1725950;82;21111;-51
2021/08/08 00:08:17;;;;;;;2.83;0.93;;;;;;;27.80;42.33;99357.25;1761040;81;20993;-51
2021/08/08 00:10:44;;;;;;;0.82;0.82;;;;;;;27.78;42.33;99357.41;1769586;81;20972;-49
2021/08/08 00:13:10;;;;;;;0.98;0.98;;;;;;;27.77;42.33;99354.39;1761050;81;20990;-49
2021/08/08 00:15:39;;;;;;;0.95;0.90;;;;;;;27.76;42.37;99360.80;1756647;81;20998;-50
2021/08/08 00:18:07;;;;;;;1.80;1.15;;;;;;;27.75;42.37;99360.45;1713193;82;20986;-53
2021/08/08 00:20:35;;;;;;;1.05;1.00;;;;;;;27.75;42.37;99363.66;1787857;80;21088;-51
2021/08/08 00:23:02;;;;;;;1.55;0.98;;;;;;;27.73;42.39;99365.18;1787801;79;21054;-49
2021/08/08 00:25:29;;;;;;;1.02;0.90;;;;;;;27.73;42.41;99359.77;1765341;80;21037;-52
2021/08/08 00:27:57;;;;;;;0.90;0.90;;;;;;;27.73;42.39;99353.02;1787794;79;21351;-50
2021/08/08 00:30:23;;;;;;;1.12;1.12;;;;;;;27.71;42.41;99359.11;1787934;80;20982;-51
2021/08/08 00:32:49;;;;;;;1.30;1.00;;;;;;;27.70;42.42;99356.05;1765044;80;21018;-50
2021/08/08 00:35:19;;;;;;;0.70;0.70;;;;;;;27.71;42.42;99362.33;1786852;80;21076;-51
2021/08/08 00:37:48;;;;;;;1.12;1.02;;;;;;;27.69;42.41;99359.78;1748428;81;20993;-49
2021/08/08 00:40:18;;;;;;;1.02;1.02;;;;;;;27.68;42.46;99362.14;1756756;81;21158;-51
2021/08/08 00:42:47;;;;;;;0.90;0.90;;;;;;;27.67;42.46;99357.77;1745355;81;21083;-51
2021/08/08 00:45:19;;;;;;;0.80;0.80;;;;;;;27.65;42.46;99358.93;1756405;81;21028;-50
2021/08/08 00:47:47;;;;;;;1.17;1.07;;;;;;;27.64;42.44;99358.09;1756692;81;21044;-52
2021/08/08 00:50:15;;;;;;;0.78;0.78;;;;;;;27.63;42.46;99357.74;1756348;81;21716;-51
2021/08/08 00:52:44;;;;;;;2.75;1.02;;;;;;;27.63;42.50;99359.09;1745915;81;21147;-53
2021/08/08 00:55:11;;;;;;;2.87;1.00;;;;;;;27.63;42.51;99361.80;1698645;83;21599;-52
2021/08/08 00:57:40;;;;;;;1.02;1.00;;;;;;;27.61;42.52;99362.48;1756609;81;21633;-51
2021/08/08 01:00:10;;;;;;;1.00;1.00;;;;;;;27.60;42.52;99362.13;1757906;80;21060;-51
2021/08/08 01:02:48;;;;;;;1.15;1.02;;;;;;;27.59;42.54;99358.59;1788023;80;21054;-51
2021/08/08 01:05:20;;;;;;;1.20;1.10;;;;;;;27.58;42.54;99360.94;1760019;80;21025;-51
2021/08/08 01:08:05;;;;;;;0.95;0.95;;;;;;;27.58;42.56;99364.16;1781070;80;21030;-49
2021/08/08 01:10:33;;;;;;;1.07;1.00;;;;;;;27.57;42.55;99363.80;1777094;80;23023;-51
2021/08/08 01:13:00;;;;;;;2.77;1.00;;;;;;;27.56;42.54;99368.89;1782978;78;21465;-49
2021/08/08 01:15:29;;;;;;;1.25;1.15;;;;;;;27.55;42.57;99377.99;1819880;78;21050;-51
2021/08/08 01:17:58;;;;;;;1.05;0.98;;;;;;;27.54;42.61;99374.97;1766241;78;21120;-96
2021/08/08 01:20:24;;;;;;;1.42;1.10;;;;;;;27.53;42.62;99374.62;1791498;78;21104;-48
2021/08/08 01:22:56;;;;;;;0.98;0.98;;;;;;;27.52;42.61;99375.62;1796750;78;21081;-52
2021/08/08 01:25:23;;;;;;;1.25;1.17;;;;;;;27.50;42.65;99378.48;1819789;78;21014;-50
2021/08/08 01:27:53;;;;;;;1.10;1.02;;;;;;;27.50;42.65;99387.11;1819849;78;21969;-51
2021/08/08 01:30:21;;;;;;;1.07;1.02;;;;;;;27.49;42.65;99384.92;1819773;78;21069;-52
2021/08/08 01:32:48;;;;;;;1.20;1.20;;;;;;;27.49;42.67;99389.45;1791433;78;21548;-51
2021/08/08 01:35:15;;;;;;;1.57;1.07;;;;;;;27.48;42.66;99390.48;1791679;78;22059;-51
2021/08/08 01:37:42;;;;;;;1.10;1.00;;;;;;;27.47;42.68;99386.95;1793795;78;21020;-50
2021/08/08 01:40:15;;;;;;;1.12;1.02;;;;;;;27.46;42.71;99390.65;1787444;80;21016;-48
2021/08/08 01:42:41;;;;;;;1.30;1.20;;;;;;;27.46;42.71;99389.81;1788448;80;22896;-52
2021/08/08 01:45:12;;;;;;;1.27;1.10;;;;;;;27.45;42.73;99391.64;1816481;78;21079;-52
2021/08/08 01:47:41;;;;;;;2.55;1.20;;;;;;;27.44;42.72;99396.73;1789927;80;21109;-52
2021/08/08 01:50:10;;;;;;;1.37;1.10;;;;;;;27.43;42.72;99387.75;1766323;79;20986;-52
2021/08/08 01:52:38;;;;;;;1.42;1.32;;;;;;;27.42;42.70;99385.25;1771970;79;21071;-51
2021/08/08 01:55:09;;;;;;;1.25;1.15;;;;;;;27.41;42.76;99384.37;1802681;79;21057;-50
2021/08/08 01:57:37;;;;;;;2.02;1.32;;;;;;;27.40;42.74;99382.71;1750093;79;21025;-49
2021/08/08 02:00:08;;;;;;;1.20;1.10;;;;;;;27.40;42.75;99383.19;1801609;79;21096;-51
2021/08/08 02:02:36;;;;;;;1.30;1.20;;;;;;;27.37;42.77;99383.03;1802174;79;21140;-51
2021/08/08 02:05:06;;;;;;;1.45;1.20;;;;;;;27.38;42.77;99386.05;1761707;81;21097;-51
2021/08/08 02:07:33;;;;;;;1.50;1.40;;;;;;;27.36;42.77;99378.63;1773118;79;21166;-52
2021/08/08 02:09:59;;;;;;;2.33;1.20;;;;;;;27.36;42.79;99385.38;1802276;79;21017;-48
2021/08/08 02:12:28;;;;;;;1.42;1.32;;;;;;;27.35;42.79;99383.71;1802490;79;21017;-50
2021/08/08 02:14:55;;;;;;;1.80;1.42;;;;;;;27.35;42.80;99389.59;1800558;79;21306;-51
2021/08/08 02:17:27;;;;;;;1.20;1.10;;;;;;;27.34;42.80;99395.52;1773517;79;21104;-52
2021/08/08 02:19:56;;;;;;;1.00;1.00;;;;;;;27.32;42.83;99388.09;1802489;79;21128;-51
2021/08/08 02:22:23;;;;;;;1.57;1.00;;;;;;;27.31;42.81;99394.48;1802598;79;21140;-52
2021/08/08 02:24:50;;;;;;;1.47;1.32;;;;;;;27.32;42.84;99396.67;1762630;81;21143;-52
2021/08/08 02:27:18;;;;;;;1.37;1.27;;;;;;;27.31;42.82;99399.89;1769333;81;21143;-52
2021/08/08 02:29:47;;;;;;;1.30;1.20;;;;;;;27.30;42.84;99398.19;1768702;81;21034;-52
2021/08/08 02:32:15;;;;;;;2.92;1.42;;;;;;;27.28;42.83;99397.48;1743317;81;21270;-51
2021/08/08 02:34:42;;;;;;;1.40;1.30;;;;;;;27.29;42.85;99400.56;1769376;81;21163;-51
2021/08/08 02:37:09;;;;;;;1.50;1.40;;;;;;;27.28;42.88;99404.23;1742923;81;21261;-50
2021/08/08 02:39:37;;;;;;;1.47;1.37;;;;;;;27.28;42.90;99402.05;1743405;81;21171;-52
2021/08/08 02:42:04;;;;;;;1.30;1.20;;;;;;;27.27;42.90;99410.66;1767528;81;21747;-52
2021/08/08 02:44:32;;;;;;;1.27;1.22;;;;;;;27.27;42.89;99408.45;1752226;81;21323;-50
2021/08/08 02:46:59;;;;;;;1.40;1.30;;;;;;;27.26;42.89;99407.61;1752370;81;21636;-51
2021/08/08 02:49:26;;;;;;;1.52;1.37;;;;;;;27.26;42.87;99415.71;1730712;81;21088;-52
2021/08/08 02:51:54;;;;;;;1.42;1.32;;;;;;;27.26;42.87;99408.96;1752280;81;21081;-52
2021/08/08 02:54:22;;;;;;;1.42;1.17;;;;;;;27.27;42.86;99399.86;1730748;81;21026;-52
2021/08/08 02:56:50;;;;;;;1.40;1.30;;;;;;;27.28;42.84;99404.23;1752165;81;21187;-48
2021/08/08 02:59:18;;;;;;;1.20;1.20;;;;;;;27.32;42.73;99408.34;1726609;81;21532;-46
2021/08/08 03:01:46;;;;;;;1.40;1.30;;;;;;;27.37;42.68;99411.40;1778287;80;21053;-52
2021/08/08 03:04:12;;;;;;;1.40;1.30;;;;;;;27.42;42.56;99411.75;1784850;80;21045;-51
2021/08/08 03:06:46;;;;;;;1.30;1.20;;;;;;;27.46;42.47;99412.27;1753105;81;21443;-52
2021/08/08 03:09:15;;;;;;;1.27;1.17;;;;;;;27.49;42.41;99413.77;1785112;80;21133;-45
2021/08/08 03:11:45;;;;;;;1.45;1.35;;;;;;;27.52;42.33;99413.45;1752964;81;21077;-52
2021/08/08 03:14:15;;;;;;;1.72;1.35;;;;;;;27.58;42.28;99416.86;1784874;80;21612;-50
2021/08/08 03:16:43;;;;;;;4.53;1.40;;;;;;;27.69;42.08;99407.58;1785083;80;20989;-49
2021/08/08 03:19:12;;;;;;;1.40;1.30;;;;;;;27.85;41.81;99408.12;1784816;80;22118;-48
2021/08/08 03:21:39;;;;;;;1.50;1.30;;;;;;;28.03;41.45;99408.84;1785013;80;21809;-50
2021/08/08 03:24:06;;;;;;;1.30;1.20;;;;;;;28.22;41.05;99408.16;1784987;80;20990;-51
2021/08/08 03:26:33;;;;;;;1.82;1.10;;;;;;;28.42;40.65;99414.91;1784868;80;21030;-51
2021/08/08 03:29:00;;;;;;;1.60;1.50;;;;;;;28.66;40.27;99405.08;1784832;80;21928;-51
2021/08/08 03:31:27;;;;;;;1.57;1.40;;;;;;;28.90;39.79;99409.09;1785052;80;21010;-51
2021/08/08 03:33:55;;;;;;;1.67;1.20;;;;;;;29.16;39.30;99403.90;1785324;80;21796;-52
2021/08/08 03:36:23;;;;;;;1.70;1.32;;;;;;;29.42;38.79;99410.42;1784917;80;20998;-51
2021/08/08 03:38:50;;;;;;;1.62;1.52;;;;;;;29.70;38.29;99403.64;1757620;80;21541;-50
2021/08/08 03:41:18;;;;;;;1.40;1.30;;;;;;;29.94;37.76;99410.30;1784841;80;21080;-51
2021/08/08 03:43:46;;;;;;;1.98;1.30;;;;;;;30.21;37.26;99403.94;1782190;79;21522;-51
2021/08/08 03:46:12;;;;;;;2.08;1.70;;;;;;;30.49;36.75;99408.30;1780669;80;23391;-53
2021/08/08 03:48:39;;;;;;;2.30;1.42;;;;;;;30.77;36.25;99412.28;1780940;80;21038;-52
2021/08/08 03:51:06;;;;;;;1.52;1.42;;;;;;;31.01;35.77;99416.09;1780559;80;22197;-54
2021/08/08 03:53:34;;;;;;;1.47;1.37;;;;;;;31.26;35.32;99413.07;1781099;80;21145;-50
2021/08/08 03:56:01;;;;;;;1.55;1.45;;;;;;;31.50;34.86;99410.53;1780889;80;21683;-53
2021/08/08 03:58:31;;;;;;;1.30;1.20;;;;;;;31.73;34.42;99403.60;1772132;80;21196;-50
2021/08/08 04:01:01;;;;;;;1.75;1.50;;;;;;;31.95;34.05;99402.25;1712033;82;21054;-50
2021/08/08 04:03:31;;;;;;;1.57;1.47;;;;;;;32.15;33.64;99411.47;1709078;83;21712;-49
2021/08/08 04:05:57;;;;;;;1.57;1.47;;;;;;;32.34;33.30;99411.30;1747975;81;21048;-50
2021/08/08 04:08:24;;;;;;;2.17;1.55;;;;;;;32.52;32.99;99413.53;1735090;82;21577;-50
2021/08/08 04:10:52;;;;;;;2.20;1.52;;;;;;;32.70;32.64;99413.57;1711910;82;21255;-53
2021/08/08 04:13:19;;;;;;;1.47;1.37;;;;;;;32.85;32.39;99414.32;1711423;82;22300;-51
2021/08/08 04:15:45;;;;;;;1.90;1.70;;;;;;;33.02;32.10;99416.20;1767671;81;21027;-53
2021/08/08 04:18:13;;;;;;;1.72;1.60;;;;;;;33.17;31.80;99420.19;1764553;81;21105;-53
2021/08/08 04:20:41;;;;;;;1.60;1.50;;;;;;;33.32;31.55;99414.56;1743386;81;21113;-53
2021/08/08 04:23:10;;;;;;;2.08;1.45;;;;;;;33.44;31.30;99418.41;1743140;81;21281;-52
2021/08/08 04:25:38;;;;;;;1.75;1.65;;;;;;;33.58;31.07;99415.19;1767667;81;21537;-52
2021/08/08 04:28:06;;;;;;;1.72;1.62;;;;;;;33.73;30.85;99416.95;1743101;81;21038;-51
2021/08/08 04:30:34;;;;;;;1.70;1.55;;;;;;;33.84;30.62;99419.05;1743339;81;21031;-51
2021/08/08 04:33:02;;;;;;;1.40;1.30;;;;;;;33.96;30.42;99410.58;1767300;81;21070;-50
2021/08/08 04:35:30;;;;;;;2.10;1.45;;;;;;;34.05;30.25;99412.05;1743601;81;21813;-50
2021/08/08 04:37:57;;;;;;;1.57;1.45;;;;;;;34.13;30.08;99408.28;1767479;81;21011;-52
2021/08/08 04:40:24;;;;;;;1.80;1.30;;;;;;;34.20;29.97;99412.38;1767790;81;21042;-52
2021/08/08 04:42:51;;;;;;;2.22;1.27;;;;;;;34.24;29.87;99406.84;1770957;79;21481;-48
2021/08/08 04:45:20;;;;;;;2.33;1.55;;;;;;;34.24;29.82;99406.84;1786112;80;21066;-51
2021/08/08 04:47:51;;;;;;;1.57;1.47;;;;;;;34.19;29.84;99406.59;1786064;80;21140;-50
2021/08/08 04:50:19;;;;;;;1.67;1.55;;;;;;;34.08;29.96;99408.58;1763330;80;21489;-50
2021/08/08 04:52:48;;;;;;;1.42;1.32;;;;;;;33.88;30.16;99418.43;1786070;80;21532;-52
2021/08/08 04:55:16;;;;;;;1.65;1.55;;;;;;;33.67;30.45;99413.97;1785729;80;21018;-51
2021/08/08 04:57:42;;;;;;;1.50;1.40;;;;;;;33.45;30.72;99417.87;1783111;80;21545;-46
2021/08/08 05:00:14;;;;;;;1.52;1.30;;;;;;;33.23;31.02;99423.97;1767020;81;21002;-52
2021/08/08 05:02:46;;;;;;;1.82;1.72;;;;;;;33.02;31.34;99428.96;1767368;81;22242;-53
2021/08/08 05:05:12;;;;;;;4.37;2.02;;;;;;;32.80;31.65;99429.07;1740612;81;21517;-53
2021/08/08 05:07:39;;;;;;;2.40;1.30;;;;;;;32.60;31.99;99430.27;1743225;81;20962;-52
2021/08/08 05:10:09;;;;;;;1.60;1.40;;;;;;;32.43;32.26;99431.08;1743133;81;20943;-52
2021/08/08 05:12:36;;;;;;;1.62;1.52;;;;;;;32.27;32.52;99428.63;1767276;81;21177;-53
2021/08/08 05:15:06;;;;;;;1.95;1.80;;;;;;;32.13;32.75;99428.52;1767202;81;21438;-54
2021/08/08 05:17:33;;;;;;;1.80;1.70;;;;;;;32.00;32.94;99427.83;1743036;81;21034;-54
2021/08/08 05:20:07;;;;;;;1.55;1.25;;;;;;;31.89;33.15;99428.86;1767411;81;22079;-51
2021/08/08 05:22:35;;;;;;;1.95;1.60;;;;;;;31.78;33.33;99435.14;1767322;81;21041;-53
2021/08/08 05:25:02;;;;;;;2.05;1.70;;;;;;;31.68;33.52;99438.70;1767310;81;21096;-51
2021/08/08 05:27:29;;;;;;;2.05;1.72;;;;;;;31.57;33.68;99436.47;1767592;81;21512;-52
2021/08/08 05:29:56;;;;;;;1.60;1.50;;;;;;;31.51;33.85;99430.45;1767343;81;21086;-53
2021/08/08 05:32:23;;;;;;;1.42;1.32;;;;;;;31.42;33.98;99434.61;1767460;81;21062;-52
2021/08/08 05:34:49;;;;;;;2.17;1.70;;;;;;;31.35;34.11;99433.66;1767215;81;21006;-53
2021/08/08 05:37:16;;;;;;;2.25;1.32;;;;;;;31.29;34.21;99440.71;1767425;81;21498;-52
2021/08/08 05:39:43;;;;;;;3.92;1.80;;;;;;;31.24;34.31;99438.25;1767193;81;20939;-50
2021/08/08 05:42:10;;;;;;;1.60;1.42;;;;;;;31.19;34.41;99436.62;1767273;81;21094;-49
2021/08/08 05:44:39;;;;;;;2.05;1.55;;;;;;;31.13;34.52;99440.08;1795215;79;21528;-52
2021/08/08 05:47:07;;;;;;;2.22;1.77;;;;;;;31.08;34.60;99437.39;1802987;79;21073;-52
2021/08/08 05:49:34;;;;;;;1.82;1.70;;;;;;;31.03;34.68;99443.91;1772908;79;22197;-53
2021/08/08 05:52:02;;;;;;;1.87;1.60;;;;;;;31.00;34.79;99442.08;1803059;79;21038;-52
2021/08/08 05:54:29;;;;;;;2.12;1.90;;;;;;;30.94;34.83;99435.53;1772969;79;21017;-53
2021/08/08 05:56:56;;;;;;;2.17;1.98;;;;;;;30.90;34.92;99440.48;1802854;79;21072;-53
2021/08/08 05:59:23;;;;;;;1.50;1.40;;;;;;;30.88;34.98;99448.47;1802346;79;21073;-49
2021/08/08 06:01:50;;;;;;;1.67;1.57;;;;;;;30.82;35.08;99442.44;1803015;79;21721;-52
2021/08/08 06:04:18;;;;;;;1.70;1.60;;;;;;;30.80;35.10;99443.98;1802759;79;20998;-52
2021/08/08 06:06:45;;;;;;;1.70;1.60;;;;;;;30.77;35.19;99446.23;1773166;79;21038;-54
2021/08/08 06:09:12;;;;;;;1.65;1.55;;;;;;;30.74;35.26;99445.55;1758701;81;21086;-53
2021/08/08 06:11:38;;;;;;;1.52;1.30;;;;;;;30.71;35.30;99447.28;1715769;81;20966;-53
2021/08/08 06:14:05;;;;;;;1.52;1.42;;;;;;;30.68;35.33;99451.75;1799503;79;22128;-53
2021/08/08 06:16:31;;;;;;;1.35;1.25;;;;;;;30.65;35.40;99454.83;1799399;79;21508;-52
2021/08/08 06:19:00;;;;;;;2.00;1.77;;;;;;;30.64;35.44;99456.37;1799565;79;21069;-52
2021/08/08 06:21:28;;;;;;;1.70;1.50;;;;;;;30.61;35.51;99454.84;1799796;79;20978;-53
2021/08/08 06:23:57;;;;;;;2.72;1.50;;;;;;;30.59;35.53;99454.72;1771779;79;22240;-53
2021/08/08 06:26:26;;;;;;;1.52;1.40;;;;;;;30.57;35.57;99453.55;1799468;79;21133;-53
2021/08/08 06:28:55;;;;;;;1.60;1.50;;;;;;;30.54;35.61;99460.69;1799750;79;20959;-53
2021/08/08 06:31:21;;;;;;;1.40;1.30;;;;;;;30.53;35.65;99464.42;1799323;79;21037;-50
2021/08/08 06:33:48;;;;;;;1.60;1.50;;;;;;;30.51;35.68;99462.41;1772616;79;21441;-53
2021/08/08 06:36:14;;;;;;;1.35;1.25;;;;;;;30.48;35.75;99461.42;1799537;79;21037;-53
2021/08/08 06:38:41;;;;;;;1.72;1.62;;;;;;;30.45;35.79;99459.09;1772478;79;21390;-53
2021/08/08 06:41:09;;;;;;;2.08;1.70;;;;;;;30.45;35.81;99462.64;1783710;79;21033;-53
2021/08/08 06:43:37;;;;;;;1.55;1.45;;;;;;;30.43;35.83;99469.27;1736792;82;21089;-53
2021/08/08 06:46:05;;;;;;;1.42;1.32;;;;;;;30.41;35.84;99464.55;1714481;82;21081;-51
2021/08/08 06:48:34;;;;;;;1.40;1.30;;;;;;;30.38;35.91;99472.56;1740183;82;21455;-53
2021/08/08 06:51:02;;;;;;;1.60;1.50;;;;;;;30.35;35.97;99476.44;1740190;82;21208;-52
2021/08/08 06:53:28;;;;;;;1.65;1.50;;;;;;;30.34;36.00;99480.16;1739826;82;20978;-53
2021/08/08 06:55:55;;;;;;;1.92;1.30;;;;;;;30.31;36.05;99477.84;1714746;82;21462;-53
2021/08/08 06:58:21;;;;;;;2.35;1.37;;;;;;;30.28;36.06;99472.77;1727699;81;21042;-52
2021/08/08 07:00:48;;;;;;;1.90;1.47;;;;;;;30.27;36.09;99468.35;1802660;79;21033;-52
2021/08/08 07:03:15;;;;;;;2.00;1.30;;;;;;;30.25;36.14;99469.05;1772983;79;21026;-51
2021/08/08 07:05:42;;;;;;;1.70;1.37;;;;;;;30.24;36.17;99479.57;1728022;81;21040;-52
2021/08/08 07:08:10;;;;;;;1.55;1.45;;;;;;;30.23;36.18;99475.67;1749672;82;21023;-52
2021/08/08 07:10:36;;;;;;;1.57;1.40;;;;;;;30.21;36.24;99474.50;1784005;80;21066;-51
2021/08/08 07:13:03;;;;;;;1.25;1.10;;;;;;;30.20;36.26;99478.26;1757477;81;21586;-50
2021/08/08 07:15:30;;;;;;;1.77;1.47;;;;;;;30.17;36.29;99479.45;1800747;79;21137;-48
2021/08/08 07:17:56;;;;;;;1.82;1.47;;;;;;;30.17;36.30;99473.19;1802174;79;21034;-51
2021/08/08 07:20:23;;;;;;;1.50;1.40;;;;;;;30.17;36.33;99475.90;1800498;79;21625;-49
2021/08/08 07:22:50;;;;;;;1.52;1.42;;;;;;;30.14;36.37;99477.13;1800590;79;21073;-51
2021/08/08 07:25:17;;;;;;;1.50;1.22;;;;;;;30.15;36.38;99486.09;1800860;79;21077;-53
2021/08/08 07:27:43;;;;;;;1.52;1.42;;;;;;;30.15;36.39;99486.09;1800718;79;23245;-53
2021/08/08 07:30:11;;;;;;;1.55;1.45;;;;;;;30.13;36.40;99488.16;1800649;79;21073;-53
2021/08/08 07:32:38;;;;;;;1.40;1.30;;;;;;;30.12;36.40;99489.17;1800697;79;21137;-53
2021/08/08 07:35:05;;;;;;;1.62;1.52;;;;;;;30.11;36.44;99492.89;1800767;79;21017;-52
2021/08/08 07:37:32;;;;;;;2.87;1.40;;;;;;;30.09;36.47;99501.21;1800671;79;21076;-53
2021/08/08 07:40:00;;;;;;;1.27;1.27;;;;;;;30.08;36.51;99503.61;1800446;79;21009;-51
2021/08/08 07:42:27;;;;;;;1.32;1.25;;;;;;;30.07;36.53;99501.08;1802242;79;21481;-53
2021/08/08 07:44:53;;;;;;;1.42;1.32;;;;;;;30.07;36.54;99501.08;1792653;79;21057;-51
2021/08/08 07:47:20;;;;;;;1.20;1.10;;;;;;;30.05;36.54;99501.25;1788302;80;21066;-53
2021/08/08 07:49:47;;;;;;;1.72;1.40;;;;;;;30.05;36.56;99500.42;1794012;79;21010;-52
2021/08/08 07:52:14;;;;;;;3.52;1.30;;;;;;;30.05;36.59;99504.48;1788278;80;21134;-51
2021/08/08 07:54:41;;;;;;;1.57;1.45;;;;;;;30.05;36.59;99500.42;1788139;80;21511;-52
2021/08/08 07:57:08;;;;;;;2.35;1.10;;;;;;;30.05;36.63;99505.84;1788221;80;21560;-51
2021/08/08 07:59:34;;;;;;;1.20;1.10;;;;;;;30.04;36.62;99506.86;1792081;80;20993;-51
2021/08/08 08:02:01;;;;;;;1.22;1.12;;;;;;;30.04;36.64;99504.14;1781335;79;21046;-51
2021/08/08 08:04:28;;;;;;;1.07;1.02;;;;;;;30.04;36.64;99505.50;1795932;79;21105;-52
2021/08/08 08:06:55;;;;;;;1.82;1.40;;;;;;;30.04;36.66;99508.21;1764334;81;21041;-52
2021/08/08 08:09:22;;;;;;;1.00;1.00;;;;;;;30.03;36.67;99503.80;1766044;79;22157;-52
2021/08/08 08:11:49;;;;;;;1.35;1.25;;;;;;;30.03;36.68;99509.22;1795854;79;21581;-53
2021/08/08 08:14:15;;;;;;;1.42;1.32;;;;;;;30.03;36.68;99507.87;1795934;79;20959;-52
2021/08/08 08:16:43;;;;;;;1.00;1.00;;;;;;;30.03;36.68;99509.22;1773056;79;21168;-51
2021/08/08 08:19:09;;;;;;;1.40;1.30;;;;;;;30.03;36.69;99501.09;1796267;79;20959;-52
2021/08/08 08:21:36;;;;;;;1.40;1.30;;;;;;;30.03;36.67;99498.37;1795892;79;21524;-53
